• Join FlightAware (Why Join?)
  • Login
  • US Flag 
03:00PM EST


 

Airport Tracker/Info


-or-


 

Live Flight TrackerFlight Track Log ✈ SWA1999 ✈ 21-Mar-2014 ✈ KBNA - KAUS

Flight Track Log - Related Links

Times and Time Zones

All times are in EDT time to prevent confusion due to time zone crossing. See the SWA1999 flight status page for this flight to view local times or setup timezone preferences in your user account.

Time Position Orientation Groundspeed Altitude Reporting Facility
EDT Latitude Longitude Course Direction KTS MPH feet Rate Location/Type
10:36PM 36.1000 -86.6833 238° Southwest 144 166 1,200  Level Nashville TRACON
10:37PM 36.0833 -86.7167 238° Southwest 167 192 2,800 2,541 Climbing Nashville TRACON
10:38PM 36.0900 -86.7719 279° West 193 222 4,800 3,173 Climbing Memphis Center
10:39PM 36.0914 -86.8567 271° West 238 274 8,300 3,393 Climbing Memphis Center
10:40PM 36.0939 -86.9458 272° West 250 288 11,700 3,000 Climbing Memphis Center
10:41PM 36.0967 -87.0578 272° West 310 357 14,400 2,656 Climbing Memphis Center
10:42PM 36.0981 -87.1575 271° West 333 383 17,100 2,976 Climbing Memphis Center
10:43PM 36.0833 -87.3006 263° West 359 413 20,500 3,098 Climbing Memphis Center
10:44PM 36.0567 -87.4261 255° West 369 425 23,400 2,479 Climbing Memphis Center
10:45PM 36.0322 -87.5556 257° West 378 435 25,500 2,016 Climbing Memphis Center
10:46PM 35.9856 -87.6800 245° Southwest 394 453 27,500 2,016 Climbing Memphis Center
10:47PM 35.9244 -87.8025 238° Southwest 410 472 29,600 2,262 Climbing Memphis Center
10:48PM 35.8678 -87.9225 240° Southwest 406 467 32,100 2,557 Climbing Memphis Center
10:49PM 35.8114 -88.0392 239° Southwest 399 459 34,800 2,508 Climbing Memphis Center
10:50PM 35.7572 -88.1506 239° Southwest 372 428 37,200 1,869 Climbing Memphis Center
10:51PM 35.7067 -88.2547 239° Southwest 360 414 38,600 1,289 Climbing Memphis Center
10:52PM 35.6569 -88.3567 239° Southwest 352 405 39,800 694 Climbing Memphis Center
10:53PM 35.6056 -88.4608 239° Southwest 352 405 40,000 98 Climbing Memphis Center
10:54PM 35.5550 -88.5639 239° Southwest 352 405 40,000  Level Memphis Center
10:55PM 35.5042 -88.6678 239° Southwest 352 405 40,000  Level Memphis Center
10:56PM 35.4522 -88.7728 239° Southwest 353 406 40,000  Level Memphis Center
10:57PM 35.4008 -88.8742 238° Southwest 356 410 40,000  Level Memphis Center
10:58PM 35.3489 -88.9781 239° Southwest 356 410 40,000  Level Memphis Center
11:00PM 35.2523 -89.1037 227° Southwest  Level FlightAware Approximate
11:07PM 34.8795 -89.8268 239° Southwest  Level FlightAware Approximate
11:08PM 34.8276 -89.9302 239° Southwest  Level FlightAware Approximate
11:09PM 34.7756 -90.0334 238° Southwest  Level FlightAware Approximate
11:10PM 34.7235 -90.1364 238° Southwest  Level FlightAware Approximate
11:11PM 34.6674 -90.2362 235° Southwest  Level FlightAware Approximate
11:12PM 34.6139 -90.3380 238° Southwest  Level FlightAware Approximate
11:13PM 34.5617 -90.4409 238° Southwest  Level FlightAware Approximate
11:14PM 34.5095 -90.5435 238° Southwest  Level FlightAware Approximate
11:15PM 34.4571 -90.6461 238° Southwest  Level FlightAware Approximate
11:16PM 34.4047 -90.7486 238° Southwest  Level FlightAware Approximate
11:17PM 34.3522 -90.8509 238° Southwest  Level FlightAware Approximate
11:18PM 34.2996 -90.9530 238° Southwest  Level FlightAware Approximate
11:19PM 34.2470 -91.0551 238° Southwest  Level FlightAware Approximate
11:20PM 34.1942 -91.1570 238° Southwest  Level FlightAware Approximate
11:21PM 34.1414 -91.2588 238° Southwest  Level FlightAware Approximate
11:22PM 34.0885 -91.3605 238° Southwest  Level FlightAware Approximate
11:23PM 34.0354 -91.4620 238° Southwest  Level FlightAware Approximate
11:24PM 33.9823 -91.5634 238° Southwest  Level FlightAware Approximate
11:25PM 33.9292 -91.6647 238° Southwest  Level FlightAware Approximate
11:26PM 33.8759 -91.7659 238° Southwest  Level FlightAware Approximate
11:27PM 33.8226 -91.8669 238° Southwest  Level FlightAware Approximate
11:28PM 33.7692 -91.9678 238° Southwest  Level FlightAware Approximate
11:29PM 33.7157 -92.0686 237° Southwest  Level FlightAware Approximate
11:30PM 33.6621 -92.1693 237° Southwest  Level FlightAware Approximate
11:31PM 33.6084 -92.2698 237° Southwest  Level FlightAware Approximate
11:32PM 33.5543 -92.3699 237° Southwest  Level FlightAware Approximate
11:33PM 33.4997 -92.4696 237° Southwest  Level FlightAware Approximate
11:34PM 33.4451 -92.5692 237° Southwest  Level FlightAware Approximate
11:35PM 33.3904 -92.6687 237° Southwest  Level FlightAware Approximate
11:36PM 33.3356 -92.7680 237° Southwest  Level FlightAware Approximate
11:37PM 33.2808 -92.8673 237° Southwest  Level FlightAware Approximate
11:38PM 33.2258 -92.9664 236° Southwest  Level FlightAware Approximate
11:39PM 33.1708 -93.0653 236° Southwest  Level FlightAware Approximate
11:40PM 33.1157 -93.1642 236° Southwest  Level FlightAware Approximate
11:41PM 33.0605 -93.2629 236° Southwest  Level FlightAware Approximate
11:42PM 33.0053 -93.3615 236° Southwest  Level FlightAware Approximate
11:43PM 32.9499 -93.4600 236° Southwest  Level FlightAware Approximate
11:44PM 32.8945 -93.5583 236° Southwest  Level FlightAware Approximate
11:45PM 32.8391 -93.6566 236° Southwest  Level FlightAware Approximate
11:46PM 32.7878 -93.7579 239° Southwest  Level FlightAware Approximate
11:47PM 32.7425 -93.8630 245° Southwest  Level FlightAware Approximate
11:48PM 32.7011 -93.9705 245° Southwest  Level FlightAware Approximate
11:49PM 32.6613 -94.0787 247° West  Level FlightAware Approximate
11:50PM 32.6225 -94.1874 247° West  Level FlightAware Approximate
11:51PM 32.5836 -94.2960 247° West  Level FlightAware Approximate
11:52PM 32.5446 -94.4045 247° West  Level FlightAware Approximate
11:53PM 32.5056 -94.5130 247° West  Level FlightAware Approximate
11:54PM 32.4664 -94.6213 247° West  Level FlightAware Approximate
11:55PM 32.4268 -94.7294 246° West  Level FlightAware Approximate
11:56PM 32.3870 -94.8373 246° West  Level FlightAware Approximate
11:57PM 32.3470 -94.9451 246° West  Level FlightAware Approximate
11:58PM 32.3069 -95.0528 246° West  Level FlightAware Approximate
11:59PM 32.2668 -95.1604 246° West  Level FlightAware Approximate
12:00AM 32.2265 -95.2679 246° West  Level FlightAware Approximate
12:01AM 32.1862 -95.3753 246° West  Level FlightAware Approximate
12:02AM 32.1457 -95.4826 246° West  Level FlightAware Approximate
12:03AM 32.1052 -95.5898 246° West  Level FlightAware Approximate
12:04AM 32.0646 -95.6969 246° West  Level FlightAware Approximate
12:05AM 32.0239 -95.8039 246° West  Level FlightAware Approximate
12:06AM 31.9815 -95.9100 243° Southwest  Level FlightAware Approximate
12:07AM 31.9367 -96.0146 243° Southwest  Level FlightAware Approximate
12:08AM 31.8923 -96.1193 245° Southwest  Level FlightAware Approximate
12:09AM 31.8499 -96.2253 245° Southwest  Level FlightAware Approximate
12:10AM 31.8089 -96.3319 246° West  Level FlightAware Approximate
12:11AM 31.7695 -96.4393 248° West  Level FlightAware Approximate
12:12AM 31.7314 -96.5473 248° West  Level FlightAware Approximate
12:13AM 31.6933 -96.6552 247° West  Level FlightAware Approximate
12:14AM 31.6479 -96.7557 246° West  Level FlightAware Approximate
12:15AM 31.6079 -96.8626 246° West  Level FlightAware Approximate
12:16AM 31.5678 -96.9694 246° West  Level FlightAware Approximate
12:17AM 31.5237 -97.0667 180° South  Level FlightAware Approximate
12:18AM 31.4305 -97.1059 201° Southwest  Level FlightAware Approximate
12:19AM 31.3378 -97.1480 201° Southwest  Level FlightAware Approximate
12:20AM 31.2445 -97.1881 200° South  Level FlightAware Approximate
12:21AM 31.1512 -97.2244 203° Southwest  Level FlightAware Approximate
12:22AM 31.0571 -97.2619 198° South  Level FlightAware Approximate
12:23AM 30.9621 -97.2960 196° South  Level FlightAware Approximate
12:24AM 30.8665 -97.3278 196° South  Level FlightAware Approximate
12:25AM 30.7844 -97.3706 192° South  Level FlightAware Approximate
12:26AM 30.6884 -97.4002 198° South  Level FlightAware Approximate
12:27AM 30.5936 -97.4349 192° South  Level FlightAware Approximate
12:28AM 30.4981 -97.4657 201° Southwest  Level FlightAware Approximate
12:29AM 30.4052 -97.5070 201° Southwest  Level FlightAware Approximate
12:30AM 30.3280 -97.5573 196° South  Level FlightAware Approximate
12:31AM 30.2410 -97.6109 213° Southwest  Level FlightAware Approximate
12:32AM 30.1833 -97.6667 221° Southwest  Level FlightAware Approximate
12:33AM 30.1945 -97.6699 221° Southwest  Level Estimated
12:34AM 30.1945 -97.6699 221° Southwest  Level Estimated
12:35AM 30.1945 -97.6699 221° Southwest  Level Estimated
12:36AM 30.1945 -97.6699 221° Southwest  Level Estimated
12:37AM 30.1945 -97.6699 221° Southwest  Level Estimated
12:38AM 30.1945 -97.6699 221° Southwest  Level Estimated
12:39AM 30.1945 -97.6699 221° Southwest  Level Estimated
12:40AM 30.1945 -97.6699 221° Southwest  Level Estimated
12:41AM 30.1945 -97.6699 221° Southwest  Level Estimated
12:42AM 30.1945 -97.6699 221° Southwest  Level Estimated
12:43AM 30.1945 -97.6699 221° Southwest  Level Estimated
12:44AM 30.1945 -97.6699 221° Southwest  Level Estimated
12:45AM 30.1945 -97.6699 221° Southwest  Level Estimated
12:46AM 30.1945 -97.6699 221° Southwest  Level Estimated